Time;durP1;ratioP1;P1;durP2;ratioP2;P2;SDS_P1;SDS_P2;PMS_P1;PMS_P2;Temp;Humidity;BMP_temperature;BMP_pressure;BME280_temperature;BME280_humidity;BME280_pressure;Samples;Min_cycle;Max_cycle;Signal;HPM_P1;HPM_P2
2021/03/05 00:01:12;;;;;;;10.00;7.80;;;;;;;3.02;45.15;101513.53;4926958;28;96929;-73
2021/03/05 00:03:40;;;;;;;10.45;7.82;;;;;;;3.02;45.40;101521.41;4922584;28;100405;-72
2021/03/05 00:06:07;;;;;;;10.00;7.80;;;;;;;3.02;45.96;101523.16;4903966;28;97984;-72
2021/03/05 00:08:34;;;;;;;11.52;7.55;;;;;;;3.03;45.01;101522.34;4928258;28;96885;-73
2021/03/05 00:11:01;;;;;;;8.80;7.25;;;;;;;3.08;45.32;101524.44;4926920;28;96896;-72
2021/03/05 00:13:28;;;;;;;11.38;7.82;;;;;;;3.07;45.61;101522.66;4927654;28;98303;-72
2021/03/05 00:15:55;;;;;;;12.10;7.60;;;;;;;3.08;45.14;101534.97;4926116;28;96752;-72
2021/03/05 00:18:22;;;;;;;10.75;7.55;;;;;;;3.08;45.30;101534.03;4918391;28;96807;-73
2021/03/05 00:20:52;;;;;;;11.75;7.68;;;;;;;3.10;45.63;101537.69;4909234;28;96871;-73
2021/03/05 00:23:20;;;;;;;9.98;7.90;;;;;;;3.11;45.34;101543.03;4927457;28;98003;-73
2021/03/05 00:25:48;;;;;;;11.13;7.45;;;;;;;3.09;45.17;101552.53;4910477;28;98766;-72
2021/03/05 00:28:16;;;;;;;9.70;7.55;;;;;;;3.11;45.26;101555.28;4909941;28;96964;-73
2021/03/05 00:30:43;;;;;;;12.23;7.45;;;;;;;3.12;45.18;101559.72;4919162;28;96958;-72
2021/03/05 00:33:10;;;;;;;8.40;7.15;;;;;;;3.11;45.55;101560.56;4919694;28;100633;-73
2021/03/05 00:35:54;;;;;;;9.85;6.57;;;;;;;3.09;44.94;101551.66;4903031;28;99298;-72
2021/03/05 00:38:21;;;;;;;7.20;6.43;;;;;;;3.05;45.14;101560.16;4926377;28;96971;-72
2021/03/05 00:40:48;;;;;;;7.60;6.88;;;;;;;2.99;44.98;101559.75;4911276;28;96938;-70
2021/03/05 00:43:15;;;;;;;7.65;6.82;;;;;;;2.97;45.02;101570.19;4927977;28;97798;-71
2021/03/05 00:45:42;;;;;;;9.50;7.25;;;;;;;2.96;45.38;101570.09;4923171;28;97408;-71
2021/03/05 00:48:10;;;;;;;8.98;7.15;;;;;;;2.95;45.55;101573.50;4909174;28;97858;-72
2021/03/05 00:50:37;;;;;;;9.80;7.18;;;;;;;2.97;44.85;101574.53;4927200;28;97177;-72
2021/03/05 00:53:06;;;;;;;9.68;7.45;;;;;;;2.97;44.80;101571.88;4910334;28;96932;-72
2021/03/05 00:55:33;;;;;;;9.40;7.57;;;;;;;2.99;45.12;101578.16;4927137;28;97977;-73
2021/03/05 00:58:06;;;;;;;8.80;6.78;;;;;;;2.97;45.29;101578.06;4903068;28;97810;-72
2021/03/05 01:00:33;;;;;;;8.77;6.95;;;;;;;3.01;45.11;101576.53;4906344;28;97770;-71
2021/03/05 01:03:00;;;;;;;10.40;7.80;;;;;;;3.05;45.23;101579.47;4922774;28;98113;-71
2021/03/05 01:05:27;;;;;;;11.80;8.05;;;;;;;3.04;45.24;101564.50;4891787;28;99341;-71
2021/03/05 01:07:59;;;;;;;10.35;8.30;;;;;;;3.02;45.08;101571.38;4919546;28;98605;-72
2021/03/05 01:10:35;;;;;;;9.48;7.20;;;;;;;3.01;44.37;101579.16;4922381;28;96853;-72
2021/03/05 01:13:02;;;;;;;11.35;7.80;;;;;;;2.99;45.03;101580.78;4889823;28;99074;-72
2021/03/05 01:15:29;;;;;;;10.15;7.55;;;;;;;3.00;44.88;101580.00;4909277;28;100466;-73
2021/03/05 01:17:56;;;;;;;9.38;7.53;;;;;;;3.03;45.03;101565.31;4919950;28;96758;-71
2021/03/05 01:20:26;;;;;;;12.40;8.13;;;;;;;3.03;45.04;101577.56;4927083;28;96890;-72
2021/03/05 01:22:53;;;;;;;10.02;7.63;;;;;;;3.04;44.77;101575.00;4904096;28;99756;-72
2021/03/05 01:25:21;;;;;;;13.18;8.50;;;;;;;3.03;44.85;101572.28;4907597;28;99477;-73
2021/03/05 01:27:49;;;;;;;11.02;9.07;;;;;;;3.01;45.17;101576.53;4909248;28;97509;-72
2021/03/05 01:30:17;;;;;;;15.35;9.43;;;;;;;3.01;44.65;101581.81;4930311;28;99082;-73
2021/03/05 01:32:44;;;;;;;12.18;9.35;;;;;;;3.00;45.03;101582.63;4929089;28;97895;-74
2021/03/05 01:35:14;;;;;;;11.77;8.68;;;;;;;2.98;44.50;101584.25;4897471;28;98642;-72
2021/03/05 01:37:40;;;;;;;13.43;9.25;;;;;;;3.00;44.64;101582.63;4889523;28;97043;-71
2021/03/05 01:40:11;;;;;;;13.30;9.15;;;;;;;2.99;44.90;101586.97;4906947;28;98348;-71
2021/03/05 01:42:38;;;;;;;12.70;9.30;;;;;;;3.00;44.73;101593.16;4911852;28;98576;-71
2021/03/05 01:45:08;;;;;;;11.93;9.07;;;;;;;2.98;44.89;101590.38;4912286;28;99386;-73
2021/03/05 01:47:35;;;;;;;13.68;9.23;;;;;;;2.99;44.41;101588.69;4903537;28;97483;-70
2021/03/05 01:50:03;;;;;;;13.55;9.52;;;;;;;2.95;44.96;101594.53;4909946;28;97159;-72
2021/03/05 01:52:30;;;;;;;13.15;9.80;;;;;;;2.91;44.52;101600.44;4912612;28;99618;-72
2021/03/05 01:54:57;;;;;;;13.27;8.88;;;;;;;2.89;44.74;101600.31;4907960;28;99808;-71
2021/03/05 01:57:24;;;;;;;12.63;8.77;;;;;;;2.88;44.96;101603.75;4926636;28;98621;-72
2021/03/05 01:59:51;;;;;;;11.15;8.85;;;;;;;2.87;44.70;101607.22;4910787;28;96952;-72
2021/03/05 02:02:18;;;;;;;12.93;9.27;;;;;;;2.84;44.96;101611.34;4894864;28;100858;-72
2021/03/05 02:04:46;;;;;;;11.95;9.15;;;;;;;2.81;44.80;101619.03;4929314;28;97903;-72
2021/03/05 02:07:13;;;;;;;11.82;9.15;;;;;;;2.82;44.53;101621.75;4907814;28;97105;-71
2021/03/05 02:09:39;;;;;;;15.02;9.23;;;;;;;2.85;44.69;101615.81;4926264;28;96916;-71
2021/03/05 02:12:07;;;;;;;11.32;9.10;;;;;;;2.82;45.03;101621.75;4906295;28;100070;-72
2021/03/05 02:14:33;;;;;;;11.52;9.10;;;;;;;2.83;44.99;101620.97;4896807;28;99189;-72
2021/03/05 02:17:05;;;;;;;13.95;9.68;;;;;;;2.83;44.61;101625.31;4922879;28;96995;-72
2021/03/05 02:20:00;;;;;;;13.30;8.13;;;;;;;2.78;45.14;101631.97;4928731;28;96928;-72
2021/03/05 02:22:49;;;;;;;10.40;8.07;;;;;;;2.78;45.12;101629.34;4898098;28;100263;-72
2021/03/05 02:25:50;;;;;;;11.80;8.45;;;;;;;2.77;44.79;101641.56;4923011;28;96672;-72
2021/03/05 02:28:44;;;;;;;10.93;9.35;;;;;;;2.78;44.93;101637.25;4911702;28;97004;-72
2021/03/05 02:31:19;;;;;;;11.20;8.73;;;;;;;2.77;45.23;101638.94;4925126;28;97022;-71
2021/03/05 02:33:50;;;;;;;12.68;8.80;;;;;;;2.79;45.15;101645.22;4904638;28;99613;-71
2021/03/05 02:36:27;;;;;;;10.55;8.50;;;;;;;2.82;45.13;101644.53;4908973;28;97575;-71
2021/03/05 02:39:11;;;;;;;11.68;8.60;;;;;;;2.83;44.51;101654.22;4923270;28;97224;-70
2021/03/05 02:41:40;;;;;;;13.80;9.43;;;;;;;2.81;44.26;101655.81;4927381;28;96835;-71
2021/03/05 02:44:10;;;;;;;13.40;8.57;;;;;;;2.80;44.96;101659.28;4926463;28;97935;-71
2021/03/05 02:46:40;;;;;;;11.20;8.73;;;;;;;2.78;44.49;101674.03;4905622;28;98893;-71
2021/03/05 02:49:08;;;;;;;10.70;8.80;;;;;;;2.74;44.52;101669.38;4912049;28;96951;-71
2021/03/05 02:51:36;;;;;;;10.57;8.85;;;;;;;2.72;44.63;101674.53;4911161;28;97350;-71
2021/03/05 02:54:05;;;;;;;10.85;8.68;;;;;;;2.69;44.53;101673.41;4908386;28;97238;-72
2021/03/05 02:56:33;;;;;;;11.50;8.30;;;;;;;2.67;44.60;101675.03;4908789;28;97598;-72
2021/03/05 02:59:01;;;;;;;11.10;7.93;;;;;;;2.68;44.61;101682.09;4931830;28;97272;-72
2021/03/05 03:01:28;;;;;;;12.85;8.65;;;;;;;2.70;44.92;101684.03;4922512;28;97995;-71
2021/03/05 03:03:57;;;;;;;12.05;9.65;;;;;;;2.68;44.56;101687.34;4911149;28;99281;-72
2021/03/05 03:06:25;;;;;;;10.75;8.20;;;;;;;2.67;45.07;101686.47;4922799;28;98758;-71
2021/03/05 03:08:53;;;;;;;10.77;7.47;;;;;;;2.67;44.62;101685.53;4921229;28;96913;-70
2021/03/05 03:11:20;;;;;;;10.77;8.07;;;;;;;2.61;44.61;101688.66;4906297;28;97104;-70
2021/03/05 03:14:05;;;;;;;13.65;8.07;;;;;;;2.55;44.95;101690.88;4908981;28;99560;-70
2021/03/05 03:16:51;;;;;;;12.18;9.18;;;;;;;2.52;45.08;101698.56;4921766;28;98762;-71
2021/03/05 03:19:19;;;;;;;10.90;8.32;;;;;;;2.59;44.64;101703.41;4910381;28;97267;-70
2021/03/05 03:21:47;;;;;;;11.45;9.02;;;;;;;2.60;44.84;101705.22;4928058;28;98910;-70
2021/03/05 03:24:14;;;;;;;11.77;8.30;;;;;;;2.61;44.82;101711.41;4926234;28;98873;-71
2021/03/05 03:26:41;;;;;;;15.10;8.57;;;;;;;2.61;44.83;101708.78;4886570;28;98784;-71
2021/03/05 03:29:09;;;;;;;11.05;8.30;;;;;;;2.56;44.58;101718.06;4906529;28;97028;-70
2021/03/05 03:31:36;;;;;;;10.55;8.82;;;;;;;2.58;44.81;101721.72;4897054;28;96878;-71
2021/03/05 03:34:03;;;;;;;11.55;8.57;;;;;;;2.57;44.31;101723.41;4928063;28;97839;-71
2021/03/05 03:36:35;;;;;;;14.57;9.10;;;;;;;2.57;44.65;101727.75;4926389;28;96886;-70
2021/03/05 03:39:03;;;;;;;13.45;9.13;;;;;;;2.56;44.88;101733.81;4905234;28;97120;-70
2021/03/05 03:41:29;;;;;;;11.93;8.95;;;;;;;2.56;43.97;101728.56;4911758;28;96909;-70
2021/03/05 03:43:56;;;;;;;10.75;8.43;;;;;;;2.54;44.47;101733.72;4910799;28;100653;-71
2021/03/05 03:46:23;;;;;;;11.07;8.90;;;;;;;2.53;44.23;101742.41;4924524;28;99200;-71
2021/03/05 03:48:55;;;;;;;23.13;13.13;;;;;;;2.52;44.40;101744.94;4919246;28;96792;-71
2021/03/05 03:51:46;;;;;;;11.88;9.00;;;;;;;2.49;44.95;101755.25;4926051;28;96653;-71
2021/03/05 03:54:15;;;;;;;13.13;8.57;;;;;;;2.47;44.41;101763.03;4928439;28;97214;-71
2021/03/05 03:56:42;;;;;;;10.45;8.10;;;;;;;2.46;44.43;101757.63;4913823;28;99807;-70
2021/03/05 03:59:12;;;;;;;10.68;8.25;;;;;;;2.47;44.38;101767.34;4922729;28;97008;-71
2021/03/05 04:01:39;;;;;;;11.95;9.25;;;;;;;2.46;44.67;101762.88;4925331;28;97165;-71
2021/03/05 04:04:07;;;;;;;9.52;8.18;;;;;;;2.42;44.58;101774.91;4907627;28;99915;-70
2021/03/05 04:06:35;;;;;;;12.10;10.02;;;;;;;2.38;44.43;101782.47;4926416;28;97688;-70
2021/03/05 04:09:03;;;;;;;17.52;11.32;;;;;;;2.38;44.44;101786.03;4923751;28;96883;-70
2021/03/05 04:11:31;;;;;;;22.50;13.07;;;;;;;2.36;44.49;101798.13;4927310;28;96536;-70
2021/03/05 04:13:58;;;;;;;13.15;8.40;;;;;;;2.37;44.63;101804.28;4917258;28;99368;-70
2021/03/05 04:16:25;;;;;;;11.52;8.52;;;;;;;2.37;44.36;101799.94;4908030;28;99917;-70
2021/03/05 04:18:52;;;;;;;10.52;8.52;;;;;;;2.39;44.74;101794.78;4928264;28;97084;-70
2021/03/05 04:21:21;;;;;;;13.07;8.98;;;;;;;2.34;44.63;101804.06;4910414;28;97032;-70
2021/03/05 04:23:47;;;;;;;12.77;9.15;;;;;;;2.28;44.37;101807.19;4908328;28;100532;-70
2021/03/05 04:26:15;;;;;;;11.52;8.50;;;;;;;2.29;44.67;101810.72;4925643;28;97164;-70
2021/03/05 04:28:42;;;;;;;9.68;8.25;;;;;;;2.30;44.67;101810.81;4923236;28;96958;-70
2021/03/05 04:31:09;;;;;;;11.23;8.45;;;;;;;2.32;44.59;101824.97;4908495;28;96988;-70
2021/03/05 04:33:36;;;;;;;9.82;8.15;;;;;;;2.30;44.37;101820.41;4910309;28;97613;-69
2021/03/05 04:36:03;;;;;;;13.50;8.85;;;;;;;2.27;44.46;101821.13;4913503;28;98785;-70
2021/03/05 04:38:44;;;;;;;14.18;8.45;;;;;;;2.29;44.89;101831.72;4909548;28;96721;-71
2021/03/05 04:41:11;;;;;;;12.15;8.55;;;;;;;2.27;44.50;101835.97;4905486;28;97495;-71
2021/03/05 04:43:38;;;;;;;11.60;8.90;;;;;;;2.24;44.21;101838.38;4919432;28;97231;-71
2021/03/05 04:46:05;;;;;;;12.80;8.65;;;;;;;2.25;44.18;101834.94;4923319;28;98020;-71
2021/03/05 04:48:32;;;;;;;11.43;9.85;;;;;;;2.24;44.93;101843.63;4910426;28;97159;-71
2021/03/05 04:50:59;;;;;;;11.68;8.88;;;;;;;2.24;44.27;101843.63;4928042;28;97293;-71
2021/03/05 04:53:46;;;;;;;11.85;8.90;;;;;;;2.22;44.90;101845.22;4903250;28;99784;-71
2021/03/05 04:56:13;;;;;;;13.77;9.43;;;;;;;2.19;44.15;101854.72;4927490;28;98638;-71
2021/03/05 04:58:40;;;;;;;10.52;8.93;;;;;;;2.17;44.69;101855.38;4928069;28;97185;-71
2021/03/05 05:01:07;;;;;;;11.52;9.65;;;;;;;2.18;44.44;101860.75;4909913;28;98016;-72
2021/03/05 05:03:35;;;;;;;13.63;9.55;;;;;;;2.15;44.28;101865.78;4926074;28;97572;-73
2021/03/05 05:06:02;;;;;;;41.58;25.63;;;;;;;2.11;44.57;101863.72;4912720;28;98261;-72
2021/03/05 05:08:29;;;;;;;21.13;14.80;;;;;;;2.14;44.85;101865.69;4905030;28;96932;-72
2021/03/05 05:10:56;;;;;;;14.77;10.13;;;;;;;2.12;44.93;101860.31;4906202;28;97912;-71
2021/03/05 05:13:23;;;;;;;11.75;9.70;;;;;;;2.13;44.00;101861.22;4919752;28;97967;-72
2021/03/05 05:15:52;;;;;;;10.07;8.60;;;;;;;2.15;44.08;101871.03;4930787;28;98944;-72
2021/03/05 05:18:19;;;;;;;15.30;10.23;;;;;;;2.19;44.71;101873.09;4923722;28;96929;-71
2021/03/05 05:20:46;;;;;;;13.88;10.32;;;;;;;2.18;44.45;101875.59;4925121;28;97372;-71
2021/03/05 05:23:13;;;;;;;14.40;10.00;;;;;;;2.16;44.67;101882.47;4895969;28;100631;-71
2021/03/05 05:25:40;;;;;;;13.18;9.68;;;;;;;2.14;44.37;101884.06;4932430;28;97573;-72
2021/03/05 05:28:07;;;;;;;16.25;10.40;;;;;;;2.11;44.48;101890.00;4933328;28;98511;-71
2021/03/05 05:30:33;;;;;;;27.02;17.08;;;;;;;2.07;44.36;101887.91;4930313;28;96847;-71
2021/03/05 05:33:01;;;;;;;22.85;15.20;;;;;;;2.06;44.69;101891.34;4907448;28;99367;-70
2021/03/05 05:35:31;;;;;;;15.07;10.45;;;;;;;2.04;44.63;101898.19;4912294;28;97000;-71
2021/03/05 05:37:58;;;;;;;16.58;10.88;;;;;;;2.05;43.99;101899.13;4906426;28;97008;-70
2021/03/05 05:40:26;;;;;;;13.57;10.60;;;;;;;2.08;44.40;101899.31;4928431;28;97155;-71
2021/03/05 05:42:54;;;;;;;17.05;10.93;;;;;;;2.05;44.42;101915.75;4907742;28;100686;-71
2021/03/05 05:45:21;;;;;;;15.52;10.30;;;;;;;2.02;44.52;101915.53;4923883;28;97698;-70
2021/03/05 05:47:48;;;;;;;14.82;11.27;;;;;;;1.98;44.08;101917.84;4910350;28;97358;-70
2021/03/05 05:50:15;;;;;;;16.95;11.40;;;;;;;1.96;44.52;101922.94;4906099;28;97032;-69
2021/03/05 05:52:45;;;;;;;15.85;11.63;;;;;;;1.88;44.39;101918.88;4902687;28;100617;-69
2021/03/05 05:55:14;;;;;;;16.27;11.00;;;;;;;1.87;44.54;101930.16;4893819;28;99534;-70
2021/03/05 05:57:43;;;;;;;19.13;11.68;;;;;;;1.85;44.30;101931.75;4933014;28;97188;-70
2021/03/05 06:00:11;;;;;;;16.15;11.70;;;;;;;1.84;44.40;101927.31;4908930;28;98175;-69
2021/03/05 06:02:42;;;;;;;15.45;10.80;;;;;;;1.78;44.93;101931.22;4909547;28;100567;-69
2021/03/05 06:05:13;;;;;;;16.30;11.40;;;;;;;1.81;44.62;101934.97;4908760;28;98615;-69
2021/03/05 06:07:41;;;;;;;12.25;9.52;;;;;;;1.79;44.16;101939.19;4924958;28;98500;-69
2021/03/05 06:10:10;;;;;;;16.40;10.77;;;;;;;1.85;44.42;101943.97;4908972;28;97061;-69
2021/03/05 06:12:42;;;;;;;17.45;10.82;;;;;;;1.85;44.53;101942.25;4920032;28;97528;-69
2021/03/05 06:15:10;;;;;;;17.02;10.93;;;;;;;1.91;44.57;101949.66;4918046;28;97817;-70
2021/03/05 06:17:43;;;;;;;14.25;10.27;;;;;;;1.92;44.26;101957.69;4925766;28;97432;-70
2021/03/05 06:20:12;;;;;;;15.38;10.35;;;;;;;1.93;44.35;101956.88;4928101;28;97180;-71
2021/03/05 06:22:39;;;;;;;14.30;10.90;;;;;;;1.92;44.80;101960.31;4918281;28;99270;-70
2021/03/05 06:25:09;;;;;;;13.40;10.13;;;;;;;1.94;43.93;101965.66;4928380;28;99202;-70
2021/03/05 06:27:37;;;;;;;14.90;10.15;;;;;;;1.96;44.19;101967.56;4908572;28;97207;-70
2021/03/05 06:30:07;;;;;;;17.33;11.20;;;;;;;1.99;44.01;101977.41;4924392;28;96830;-71
2021/03/05 06:32:37;;;;;;;12.93;10.25;;;;;;;1.98;43.83;101983.47;4924461;28;100569;-71
2021/03/05 06:35:05;;;;;;;12.90;9.88;;;;;;;1.95;44.47;101985.84;4934058;28;97531;-70
2021/03/05 06:37:43;;;;;;;13.13;9.80;;;;;;;1.95;44.14;101989.38;4896535;28;98209;-71
2021/03/05 06:40:24;;;;;;;13.60;10.35;;;;;;;1.95;43.64;101998.97;4934569;28;96901;-69
2021/03/05 06:42:52;;;;;;;12.93;9.85;;;;;;;1.96;43.92;102006.06;4914454;28;99314;-70
2021/03/05 06:45:21;;;;;;;14.68;10.55;;;;;;;1.91;43.54;102003.06;4929600;28;99152;-70
2021/03/05 06:48:07;;;;;;;15.32;10.68;;;;;;;1.87;44.13;102014.13;4917879;28;96744;-70
2021/03/05 06:50:35;;;;;;;12.38;9.95;;;;;;;1.90;44.19;102018.72;4922107;28;97358;-70
2021/03/05 06:53:19;;;;;;;14.10;10.23;;;;;;;1.89;43.94;102024.78;4905465;28;99361;-70
2021/03/05 06:55:46;;;;;;;12.95;9.75;;;;;;;1.90;44.47;102026.59;4902581;28;100756;-70
2021/03/05 06:58:13;;;;;;;12.75;9.73;;;;;;;1.87;43.83;102037.75;4922672;28;97249;-70
2021/03/05 07:00:42;;;;;;;13.90;9.98;;;;;;;1.84;44.48;102039.22;4899752;28;97448;-71
2021/03/05 07:03:19;;;;;;;13.00;10.43;;;;;;;1.80;43.97;102045.03;4918510;28;97153;-71
2021/03/05 07:05:52;;;;;;;13.02;10.07;;;;;;;1.72;44.26;102054.97;4919068;28;99715;-71
2021/03/05 07:08:39;;;;;;;13.30;10.15;;;;;;;1.70;44.17;102059.19;4907630;28;96912;-71
2021/03/05 07:11:09;;;;;;;14.57;9.90;;;;;;;1.69;43.94;102054.72;4908674;28;97270;-72
2021/03/05 07:13:48;;;;;;;16.42;10.50;;;;;;;1.70;43.82;102061.81;4903242;28;100204;-71
2021/03/05 07:16:15;;;;;;;13.43;10.27;;;;;;;1.73;43.73;102064.66;4931248;28;97720;-71
2021/03/05 07:18:43;;;;;;;19.13;11.50;;;;;;;1.70;43.89;102072.31;4921576;28;98097;-71
2021/03/05 07:21:10;;;;;;;15.88;11.27;;;;;;;1.70;43.96;102072.31;4932758;28;97945;-70
2021/03/05 07:23:38;;;;;;;16.17;10.32;;;;;;;1.72;44.37;102080.28;4930202;28;100531;-71
2021/03/05 07:26:05;;;;;;;14.15;10.32;;;;;;;1.70;43.67;102088.06;4926165;28;97644;-71
2021/03/05 07:28:33;;;;;;;12.15;9.38;;;;;;;1.70;44.17;102095.00;4929744;28;97194;-71
2021/03/05 07:31:01;;;;;;;11.88;9.45;;;;;;;1.71;44.25;102095.13;4933237;28;96921;-70
2021/03/05 07:33:29;;;;;;;11.75;9.38;;;;;;;1.73;43.71;102109.28;4934450;28;99310;-70
2021/03/05 07:35:57;;;;;;;12.20;10.25;;;;;;;1.71;43.70;102108.25;4921254;28;98749;-70
2021/03/05 07:38:28;;;;;;;14.25;10.95;;;;;;;1.69;43.95;102111.56;4914700;28;97155;-70
2021/03/05 07:41:09;;;;;;;18.42;11.65;;;;;;;1.63;44.02;102108.44;4914271;28;97019;-70
2021/03/05 07:43:38;;;;;;;13.52;9.70;;;;;;;1.62;44.47;102104.91;4929074;28;97772;-70
2021/03/05 07:46:05;;;;;;;17.20;10.80;;;;;;;1.66;44.40;102106.97;4914451;28;99191;-70
2021/03/05 07:48:32;;;;;;;14.73;9.75;;;;;;;1.70;43.99;102118.63;4908423;28;97152;-70
2021/03/05 07:50:59;;;;;;;13.15;10.18;;;;;;;1.67;43.81;102119.28;4926358;28;97335;-71
2021/03/05 07:53:27;;;;;;;14.88;9.80;;;;;;;1.69;43.51;102127.31;4913388;28;97314;-71
2021/03/05 07:55:54;;;;;;;15.20;9.85;;;;;;;1.70;43.49;102124.78;4907476;28;100466;-71
2021/03/05 07:58:47;;;;;;;13.65;9.38;;;;;;;1.71;43.62;102123.06;4915725;28;97144;-71
2021/03/05 08:01:13;;;;;;;14.10;9.65;;;;;;;1.61;44.08;102113.59;4934486;28;97193;-72
2021/03/05 08:03:54;;;;;;;15.10;10.80;;;;;;;1.63;43.38;102118.94;4900676;28;98139;-70
2021/03/05 08:06:27;;;;;;;14.57;9.85;;;;;;;1.61;43.72;102129.31;4905078;28;100635;-70
2021/03/05 08:09:06;;;;;;;16.88;10.75;;;;;;;1.60;43.47;102121.34;4913484;28;97116;-70
2021/03/05 08:11:35;;;;;;;14.30;9.95;;;;;;;1.60;43.38;102126.59;4928378;28;96938;-70
2021/03/05 08:14:25;;;;;;;13.82;9.45;;;;;;;1.60;43.95;102130.09;4925733;28;97690;-71
2021/03/05 08:16:53;;;;;;;15.80;10.02;;;;;;;1.62;43.71;102130.22;4903362;28;97637;-70
2021/03/05 08:19:48;;;;;;;15.13;10.13;;;;;;;1.65;43.72;102128.75;4924185;28;96652;-70
2021/03/05 08:22:16;;;;;;;14.65;9.32;;;;;;;1.69;43.17;102125.56;4926455;28;96858;-71
2021/03/05 08:24:44;;;;;;;17.05;10.90;;;;;;;1.64;43.77;102124.31;4927074;28;97616;-70
2021/03/05 08:27:16;;;;;;;18.20;10.18;;;;;;;1.65;43.40;102147.09;4887698;28;100449;-71
2021/03/05 08:30:00;;;;;;;13.23;9.95;;;;;;;1.67;43.21;102140.28;4922770;28;97224;-70
2021/03/05 08:32:52;;;;;;;17.30;9.27;;;;;;;1.70;43.38;102131.72;4920948;28;99110;-71
2021/03/05 08:35:46;;;;;;;17.00;10.18;;;;;;;1.76;43.26;102140.09;4905272;28;99804;-71
2021/03/05 08:38:19;;;;;;;13.85;8.90;;;;;;;1.78;43.32;102146.38;4915067;28;99547;-71
2021/03/05 08:40:56;;;;;;;11.70;9.32;;;;;;;1.77;43.39;102149.78;4925946;28;97124;-71
2021/03/05 08:43:26;;;;;;;13.35;9.35;;;;;;;1.79;43.30;102145.56;4924006;28;98602;-71
2021/03/05 08:45:55;;;;;;;12.23;9.23;;;;;;;1.83;43.01;102145.94;4908838;28;99374;-71
2021/03/05 08:48:31;;;;;;;13.00;9.52;;;;;;;1.90;42.87;102145.63;4927433;28;97820;-71
2021/03/05 08:51:07;;;;;;;11.27;8.82;;;;;;;1.93;43.19;102145.84;4929733;28;97409;-71
2021/03/05 08:53:42;;;;;;;16.20;9.10;;;;;;;1.92;42.95;102148.34;4928548;28;97178;-71
2021/03/05 08:56:12;;;;;;;10.80;9.00;;;;;;;1.84;43.66;102155.63;4921415;28;98546;-71
2021/03/05 08:58:39;;;;;;;11.45;8.85;;;;;;;1.84;42.96;102165.22;4908038;28;100309;-71
2021/03/05 09:01:07;;;;;;;12.98;8.10;;;;;;;1.84;43.36;102174.00;4919308;28;97248;-71
2021/03/05 09:03:34;;;;;;;10.23;8.27;;;;;;;1.90;42.66;102179.75;4906682;28;97391;-71
2021/03/05 09:06:11;;;;;;;9.90;8.48;;;;;;;1.94;42.65;102183.53;4920576;28;97738;-71
2021/03/05 09:08:38;;;;;;;9.65;8.35;;;;;;;2.01;42.89;102180.56;4925966;28;97893;-71
2021/03/05 09:11:06;;;;;;;11.48;8.48;;;;;;;1.98;42.63;102181.22;4926232;28;96650;-71
2021/03/05 09:13:35;;;;;;;10.75;7.97;;;;;;;2.01;43.33;102193.69;4907031;28;96625;-73
2021/03/05 09:16:04;;;;;;;9.60;8.23;;;;;;;2.02;43.25;102193.81;4924711;28;97618;-73
2021/03/05 09:18:33;;;;;;;11.10;8.30;;;;;;;2.06;42.97;102188.00;4923477;28;99754;-73
2021/03/05 09:21:01;;;;;;;7.72;7.03;;;;;;;2.09;42.84;102190.00;4912401;28;97340;-72
2021/03/05 09:23:31;;;;;;;10.35;7.10;;;;;;;2.09;42.99;102198.78;4909016;28;96921;-73
2021/03/05 09:26:02;;;;;;;7.72;6.95;;;;;;;2.08;43.01;102201.25;4925095;28;97605;-72
2021/03/05 09:28:37;;;;;;;11.07;7.10;;;;;;;2.10;42.76;102200.63;4924491;28;97308;-73
2021/03/05 09:31:04;;;;;;;8.40;7.10;;;;;;;2.15;42.45;102201.88;4905862;28;96712;-73
2021/03/05 09:33:33;;;;;;;8.00;7.15;;;;;;;2.26;42.65;102200.06;4908102;28;96751;-71
2021/03/05 09:36:07;;;;;;;8.60;6.85;;;;;;;2.33;42.71;102196.22;4920347;28;100261;-73
2021/03/05 09:38:36;;;;;;;10.52;7.90;;;;;;;2.40;42.90;102201.16;4908243;28;98278;-72
2021/03/05 09:41:17;;;;;;;7.03;6.32;;;;;;;2.47;41.99;102213.94;4919585;28;98167;-73
2021/03/05 09:43:45;;;;;;;7.45;6.75;;;;;;;2.43;42.62;102212.81;4906053;28;97440;-71
2021/03/05 09:46:20;;;;;;;7.18;6.25;;;;;;;2.46;42.12;102209.47;4930213;28;99256;-72
2021/03/05 09:48:49;;;;;;;7.65;6.85;;;;;;;2.54;42.45;102213.59;4922412;28;100725;-72
2021/03/05 09:51:16;;;;;;;12.00;6.82;;;;;;;2.58;41.79;102213.06;4901411;28;97205;-72
2021/03/05 09:53:52;;;;;;;7.13;6.22;;;;;;;2.65;41.99;102210.09;4925735;28;97530;-72
2021/03/05 09:56:21;;;;;;;7.28;6.28;;;;;;;2.69;42.31;102217.41;4912162;28;99475;-72
2021/03/05 09:58:53;;;;;;;7.50;6.75;;;;;;;2.69;42.02;102220.03;4926906;28;97353;-72
2021/03/05 10:01:20;;;;;;;6.15;5.60;;;;;;;2.76;42.26;102214.44;4928489;28;97109;-72
2021/03/05 10:03:52;;;;;;;7.10;5.93;;;;;;;2.86;41.68;102216.94;4929248;28;97119;-72
2021/03/05 10:06:19;;;;;;;6.03;5.53;;;;;;;2.92;42.03;102217.41;4922868;28;97350;-72
2021/03/05 10:08:46;;;;;;;7.97;6.13;;;;;;;3.00;41.90;102217.16;4914190;28;99174;-74
2021/03/05 10:11:13;;;;;;;6.00;5.47;;;;;;;3.04;41.68;102206.06;4927483;28;97285;-73
2021/03/05 10:13:42;;;;;;;6.57;5.70;;;;;;;3.10;41.87;102211.78;4925778;28;97360;-73
2021/03/05 10:16:18;;;;;;;5.65;5.25;;;;;;;3.12;41.64;102214.53;4928767;28;99223;-77
2021/03/05 10:18:46;;;;;;;5.72;5.10;;;;;;;3.19;41.07;102224.69;4903357;28;99145;-73
2021/03/05 10:21:15;;;;;;;5.47;4.53;;;;;;;3.17;41.24;102224.59;4922422;28;97094;-73
2021/03/05 10:23:43;;;;;;;5.28;4.80;;;;;;;3.19;41.52;102227.31;4925250;28;97202;-70
2021/03/05 10:26:20;;;;;;;4.72;4.40;;;;;;;3.27;40.45;102223.56;4927575;28;98331;-73
2021/03/05 10:28:53;;;;;;;4.55;4.22;;;;;;;3.35;40.21;102235.53;4924531;28;97259;-75
2021/03/05 10:31:20;;;;;;;4.88;4.45;;;;;;;3.43;40.68;102233.47;4928427;28;96672;-72
2021/03/05 10:33:47;;;;;;;4.40;4.00;;;;;;;3.49;40.53;102229.59;4911218;28;97031;-73
2021/03/05 10:36:16;;;;;;;5.03;4.43;;;;;;;3.51;40.90;102230.63;4933084;28;97685;-73
2021/03/05 10:38:43;;;;;;;4.03;3.83;;;;;;;3.59;40.76;102239.97;4901848;28;99639;-73
2021/03/05 10:41:30;;;;;;;8.15;4.15;;;;;;;3.68;40.54;102242.34;4905957;28;97203;-73
2021/03/05 10:43:56;;;;;;;3.88;3.58;;;;;;;3.70;40.40;102246.94;4908056;28;96937;-72
2021/03/05 10:46:23;;;;;;;4.05;3.80;;;;;;;3.74;40.06;102248.06;4912347;28;98642;-73
2021/03/05 10:48:51;;;;;;;4.47;3.50;;;;;;;3.75;39.84;102245.56;4909773;28;97224;-74
2021/03/05 10:51:19;;;;;;;4.05;3.83;;;;;;;3.76;39.79;102247.41;4925824;28;96693;-73
2021/03/05 10:53:50;;;;;;;4.10;3.80;;;;;;;3.75;39.83;102250.81;4915608;28;97003;-73
2021/03/05 10:56:17;;;;;;;4.15;3.85;;;;;;;3.79;39.70;102247.59;4925383;28;101003;-73
2021/03/05 10:58:44;;;;;;;4.22;3.30;;;;;;;3.82;39.84;102241.66;4899463;28;98559;-72
2021/03/05 11:01:10;;;;;;;3.20;3.10;;;;;;;3.85;39.26;102247.13;4915294;28;97000;-73
2021/03/05 11:03:38;;;;;;;3.45;3.15;;;;;;;3.88;39.37;102250.88;4932796;28;97020;-72
2021/03/05 11:06:05;;;;;;;3.50;3.40;;;;;;;3.91;38.98;102247.56;4928610;28;99318;-73
2021/03/05 11:08:33;;;;;;;3.50;3.30;;;;;;;3.89;39.02;102255.38;4910012;28;99523;-72
2021/03/05 11:11:02;;;;;;;3.20;3.10;;;;;;;3.93;39.16;102252.13;4929066;28;97123;-72
2021/03/05 11:13:29;;;;;;;3.88;3.60;;;;;;;4.00;38.89;102257.06;4910436;28;96694;-74
2021/03/05 11:15:56;;;;;;;3.10;3.00;;;;;;;4.03;38.92;102262.53;4890633;28;100691;-73
2021/03/05 11:18:23;;;;;;;3.63;3.42;;;;;;;4.10;38.75;102267.41;4929386;28;97639;-74
2021/03/05 11:20:51;;;;;;;3.45;3.25;;;;;;;4.19;38.83;102262.78;4923435;28;97282;-73
2021/03/05 11:23:18;;;;;;;3.55;3.25;;;;;;;4.22;38.41;102268.25;4906257;28;98035;-73
2021/03/05 11:25:46;;;;;;;3.42;3.20;;;;;;;4.30;38.26;102271.44;4933245;28;98643;-73
2021/03/05 11:28:14;;;;;;;29.55;13.38;;;;;;;4.31;38.15;102267.09;4931603;28;98032;-75
2021/03/05 11:30:43;;;;;;;16.85;8.77;;;;;;;4.41;38.22;102264.31;4924719;28;96980;-74
2021/03/05 11:33:10;;;;;;;3.40;3.10;;;;;;;4.48;37.87;102262.16;4906755;28;98319;-73
2021/03/05 11:35:37;;;;;;;3.13;2.88;;;;;;;4.49;37.87;102269.28;4901797;28;99232;-73
2021/03/05 11:38:07;;;;;;;3.17;3.08;;;;;;;4.54;37.33;102273.16;4920040;28;97046;-74